Terminal Aerodrome Forecast
Issued by NWS

Home | Current Version | Previous Version | Text Only | Print | Product List | Glossary On
Versions: 1 2 3 4 5 6 7 8 9 10 11 12 13
000
FTPA31 PHFO 180542
TAFHOG
TAF
PHOG 180542Z 1806/1906 03008KT P6SM VCSH SCT015 SCT040 BKN060
     FM181000 03008KT P6SM VCTS SCT025 BKN035CB
      AMD LTD TO VIS AND WIND 1809/1816=

USA.gov is the U.S. government's official web portal to all federal, state and local government web resources and services.